sensor_id;sensor_type;location;lat;lon;timestamp;P1;durP1;ratioP1;P2;durP2;ratioP2
4638;SDS011;2332;38.646;-9.154;2022-12-29T00:01:21;23.23;;;8.30;;
4638;SDS011;2332;38.646;-9.154;2022-12-29T00:03:47;24.40;;;8.40;;
4638;SDS011;2332;38.646;-9.154;2022-12-29T00:06:12;25.53;;;8.63;;
4638;SDS011;2332;38.646;-9.154;2022-12-29T00:08:38;28.50;;;7.53;;
4638;SDS011;2332;38.646;-9.154;2022-12-29T00:11:06;27.07;;;6.80;;
4638;SDS011;2332;38.646;-9.154;2022-12-29T00:13:34;27.30;;;7.10;;
4638;SDS011;2332;38.646;-9.154;2022-12-29T00:16:18;23.27;;;7.37;;
4638;SDS011;2332;38.646;-9.154;2022-12-29T00:18:43;29.53;;;6.53;;
4638;SDS011;2332;38.646;-9.154;2022-12-29T00:21:16;28.67;;;6.70;;
4638;SDS011;2332;38.646;-9.154;2022-12-29T00:24:00;26.87;;;9.30;;
4638;SDS011;2332;38.646;-9.154;2022-12-29T00:26:44;50.93;;;18.60;;
4638;SDS011;2332;38.646;-9.154;2022-12-29T00:29:28;38.53;;;12.73;;
4638;SDS011;2332;38.646;-9.154;2022-12-29T00:32:12;33.37;;;7.20;;
4638;SDS011;2332;38.646;-9.154;2022-12-29T00:34:59;22.20;;;6.77;;
4638;SDS011;2332;38.646;-9.154;2022-12-29T00:37:35;29.13;;;6.70;;
4638;SDS011;2332;38.646;-9.154;2022-12-29T00:40:26;35.10;;;5.87;;
4638;SDS011;2332;38.646;-9.154;2022-12-29T00:43:10;22.80;;;5.33;;
4638;SDS011;2332;38.646;-9.154;2022-12-29T00:45:54;30.27;;;6.10;;
4638;SDS011;2332;38.646;-9.154;2022-12-29T00:48:19;26.80;;;5.97;;
4638;SDS011;2332;38.646;-9.154;2022-12-29T00:51:05;20.50;;;6.30;;
4638;SDS011;2332;38.646;-9.154;2022-12-29T00:53:31;33.97;;;7.23;;
4638;SDS011;2332;38.646;-9.154;2022-12-29T00:55:56;18.40;;;6.00;;
4638;SDS011;2332;38.646;-9.154;2022-12-29T00:58:21;23.10;;;6.10;;
4638;SDS011;2332;38.646;-9.154;2022-12-29T01:00:50;32.23;;;6.97;;
4638;SDS011;2332;38.646;-9.154;2022-12-29T01:03:15;24.93;;;6.37;;
4638;SDS011;2332;38.646;-9.154;2022-12-29T01:05:40;24.53;;;5.90;;
4638;SDS011;2332;38.646;-9.154;2022-12-29T01:08:06;30.63;;;6.63;;
4638;SDS011;2332;38.646;-9.154;2022-12-29T01:10:31;20.00;;;5.13;;
4638;SDS011;2332;38.646;-9.154;2022-12-29T01:12:56;24.30;;;5.67;;
4638;SDS011;2332;38.646;-9.154;2022-12-29T01:15:22;41.03;;;5.90;;
4638;SDS011;2332;38.646;-9.154;2022-12-29T01:17:47;28.87;;;5.53;;
4638;SDS011;2332;38.646;-9.154;2022-12-29T01:20:13;28.97;;;5.27;;
4638;SDS011;2332;38.646;-9.154;2022-12-29T01:22:38;32.50;;;6.50;;
4638;SDS011;2332;38.646;-9.154;2022-12-29T01:25:04;24.40;;;5.20;;
4638;SDS011;2332;38.646;-9.154;2022-12-29T01:27:30;23.67;;;4.77;;
4638;SDS011;2332;38.646;-9.154;2022-12-29T01:29:55;27.27;;;4.90;;
4638;SDS011;2332;38.646;-9.154;2022-12-29T01:32:21;18.67;;;4.33;;
4638;SDS011;2332;38.646;-9.154;2022-12-29T01:34:46;26.00;;;4.43;;
4638;SDS011;2332;38.646;-9.154;2022-12-29T01:37:11;27.67;;;4.10;;
4638;SDS011;2332;38.646;-9.154;2022-12-29T01:39:37;28.53;;;4.97;;
4638;SDS011;2332;38.646;-9.154;2022-12-29T01:42:02;23.13;;;4.87;;
4638;SDS011;2332;38.646;-9.154;2022-12-29T01:47:36;24.60;;;6.40;;
4638;SDS011;2332;38.646;-9.154;2022-12-29T01:50:08;40.13;;;8.20;;
4638;SDS011;2332;38.646;-9.154;2022-12-29T01:52:35;19.47;;;9.37;;
4638;SDS011;2332;38.646;-9.154;2022-12-29T01:55:01;19.80;;;5.07;;
4638;SDS011;2332;38.646;-9.154;2022-12-29T01:57:28;21.30;;;4.77;;
4638;SDS011;2332;38.646;-9.154;2022-12-29T02:00:02;28.10;;;5.17;;
4638;SDS011;2332;38.646;-9.154;2022-12-29T02:02:28;25.67;;;5.27;;
4638;SDS011;2332;38.646;-9.154;2022-12-29T02:04:54;29.77;;;4.40;;
4638;SDS011;2332;38.646;-9.154;2022-12-29T02:07:21;22.13;;;3.70;;
4638;SDS011;2332;38.646;-9.154;2022-12-29T02:09:48;21.37;;;4.83;;
4638;SDS011;2332;38.646;-9.154;2022-12-29T02:12:14;21.63;;;3.77;;
4638;SDS011;2332;38.646;-9.154;2022-12-29T02:14:40;18.87;;;3.70;;
4638;SDS011;2332;38.646;-9.154;2022-12-29T02:22:04;21.10;;;3.47;;
4638;SDS011;2332;38.646;-9.154;2022-12-29T02:27:24;29.60;;;4.20;;
4638;SDS011;2332;38.646;-9.154;2022-12-29T02:30:00;29.13;;;3.90;;
4638;SDS011;2332;38.646;-9.154;2022-12-29T02:37:41;22.53;;;4.33;;
4638;SDS011;2332;38.646;-9.154;2022-12-29T02:42:51;22.07;;;4.10;;
4638;SDS011;2332;38.646;-9.154;2022-12-29T02:50:14;26.53;;;4.30;;
4638;SDS011;2332;38.646;-9.154;2022-12-29T02:52:49;18.80;;;3.50;;
4638;SDS011;2332;38.646;-9.154;2022-12-29T02:55:15;18.90;;;3.60;;
4638;SDS011;2332;38.646;-9.154;2022-12-29T02:57:40;33.30;;;4.00;;
4638;SDS011;2332;38.646;-9.154;2022-12-29T03:00:07;27.30;;;4.13;;
4638;SDS011;2332;38.646;-9.154;2022-12-29T03:12:54;10.60;;;2.50;;
4638;SDS011;2332;38.646;-9.154;2022-12-29T03:15:42;13.53;;;2.33;;
4638;SDS011;2332;38.646;-9.154;2022-12-29T03:21:04;13.10;;;3.20;;
4638;SDS011;2332;38.646;-9.154;2022-12-29T03:23:30;7.60;;;2.27;;
4638;SDS011;2332;38.646;-9.154;2022-12-29T03:25:58;13.40;;;2.20;;
4638;SDS011;2332;38.646;-9.154;2022-12-29T03:28:28;13.30;;;2.50;;
4638;SDS011;2332;38.646;-9.154;2022-12-29T03:30:54;23.47;;;3.30;;
4638;SDS011;2332;38.646;-9.154;2022-12-29T03:33:21;9.43;;;2.57;;
4638;SDS011;2332;38.646;-9.154;2022-12-29T03:35:48;7.53;;;2.13;;
4638;SDS011;2332;38.646;-9.154;2022-12-29T03:40:44;13.40;;;2.13;;
4638;SDS011;2332;38.646;-9.154;2022-12-29T03:43:10;12.73;;;2.30;;
4638;SDS011;2332;38.646;-9.154;2022-12-29T03:45:36;14.10;;;2.83;;
4638;SDS011;2332;38.646;-9.154;2022-12-29T03:48:02;17.27;;;3.03;;
4638;SDS011;2332;38.646;-9.154;2022-12-29T03:50:27;15.87;;;2.90;;
4638;SDS011;2332;38.646;-9.154;2022-12-29T03:52:53;24.53;;;3.60;;
4638;SDS011;2332;38.646;-9.154;2022-12-29T03:55:18;17.83;;;2.30;;
4638;SDS011;2332;38.646;-9.154;2022-12-29T03:57:43;11.97;;;2.57;;
4638;SDS011;2332;38.646;-9.154;2022-12-29T04:00:09;19.23;;;3.43;;
4638;SDS011;2332;38.646;-9.154;2022-12-29T04:02:34;11.70;;;2.90;;
4638;SDS011;2332;38.646;-9.154;2022-12-29T04:05:00;13.07;;;2.43;;
4638;SDS011;2332;38.646;-9.154;2022-12-29T04:07:25;16.40;;;2.40;;
4638;SDS011;2332;38.646;-9.154;2022-12-29T04:09:50;14.20;;;3.80;;
4638;SDS011;2332;38.646;-9.154;2022-12-29T04:12:16;28.87;;;2.70;;
4638;SDS011;2332;38.646;-9.154;2022-12-29T04:14:41;18.80;;;2.83;;
4638;SDS011;2332;38.646;-9.154;2022-12-29T04:17:07;12.40;;;2.63;;
4638;SDS011;2332;38.646;-9.154;2022-12-29T04:19:35;16.10;;;3.50;;
4638;SDS011;2332;38.646;-9.154;2022-12-29T04:22:00;11.10;;;2.87;;
4638;SDS011;2332;38.646;-9.154;2022-12-29T04:24:25;15.93;;;2.60;;
4638;SDS011;2332;38.646;-9.154;2022-12-29T04:26:51;12.53;;;2.67;;
4638;SDS011;2332;38.646;-9.154;2022-12-29T04:29:16;13.80;;;2.83;;
4638;SDS011;2332;38.646;-9.154;2022-12-29T04:31:41;11.50;;;2.70;;
4638;SDS011;2332;38.646;-9.154;2022-12-29T04:34:07;19.00;;;3.43;;
4638;SDS011;2332;38.646;-9.154;2022-12-29T04:36:32;14.37;;;3.10;;
4638;SDS011;2332;38.646;-9.154;2022-12-29T04:38:58;15.40;;;3.03;;
4638;SDS011;2332;38.646;-9.154;2022-12-29T04:41:23;19.57;;;3.70;;
4638;SDS011;2332;38.646;-9.154;2022-12-29T04:43:51;20.93;;;3.33;;
4638;SDS011;2332;38.646;-9.154;2022-12-29T04:46:16;13.00;;;2.93;;
4638;SDS011;2332;38.646;-9.154;2022-12-29T04:48:42;15.57;;;3.33;;
4638;SDS011;2332;38.646;-9.154;2022-12-29T04:51:07;19.53;;;3.23;;
4638;SDS011;2332;38.646;-9.154;2022-12-29T04:53:33;15.10;;;2.83;;
4638;SDS011;2332;38.646;-9.154;2022-12-29T04:55:58;16.53;;;3.23;;
4638;SDS011;2332;38.646;-9.154;2022-12-29T04:58:23;15.83;;;3.20;;
4638;SDS011;2332;38.646;-9.154;2022-12-29T05:00:49;17.33;;;3.23;;
4638;SDS011;2332;38.646;-9.154;2022-12-29T05:03:15;19.13;;;3.23;;
4638;SDS011;2332;38.646;-9.154;2022-12-29T05:05:40;22.67;;;3.83;;
4638;SDS011;2332;38.646;-9.154;2022-12-29T05:08:06;18.07;;;3.57;;
4638;SDS011;2332;38.646;-9.154;2022-12-29T05:10:31;13.27;;;2.27;;
4638;SDS011;2332;38.646;-9.154;2022-12-29T05:12:57;15.63;;;3.30;;
4638;SDS011;2332;38.646;-9.154;2022-12-29T05:15:25;13.80;;;2.73;;
4638;SDS011;2332;38.646;-9.154;2022-12-29T05:17:51;12.30;;;3.07;;
4638;SDS011;2332;38.646;-9.154;2022-12-29T05:20:17;18.87;;;3.47;;
4638;SDS011;2332;38.646;-9.154;2022-12-29T05:22:42;17.70;;;3.87;;
4638;SDS011;2332;38.646;-9.154;2022-12-29T05:25:08;14.77;;;2.97;;
4638;SDS011;2332;38.646;-9.154;2022-12-29T05:27:33;19.80;;;2.80;;
4638;SDS011;2332;38.646;-9.154;2022-12-29T05:29:59;13.80;;;2.77;;
4638;SDS011;2332;38.646;-9.154;2022-12-29T05:32:24;14.93;;;3.03;;
4638;SDS011;2332;38.646;-9.154;2022-12-29T05:34:49;13.10;;;3.10;;
4638;SDS011;2332;38.646;-9.154;2022-12-29T05:37:15;17.67;;;2.73;;
4638;SDS011;2332;38.646;-9.154;2022-12-29T05:39:40;21.43;;;2.90;;
4638;SDS011;2332;38.646;-9.154;2022-12-29T05:42:05;13.00;;;2.20;;
4638;SDS011;2332;38.646;-9.154;2022-12-29T05:44:31;13.73;;;2.47;;
4638;SDS011;2332;38.646;-9.154;2022-12-29T05:46:56;11.50;;;2.30;;
4638;SDS011;2332;38.646;-9.154;2022-12-29T05:49:22;11.60;;;3.00;;
4638;SDS011;2332;38.646;-9.154;2022-12-29T05:51:47;12.70;;;2.40;;
4638;SDS011;2332;38.646;-9.154;2022-12-29T05:54:12;10.67;;;2.30;;
4638;SDS011;2332;38.646;-9.154;2022-12-29T05:56:38;22.47;;;2.80;;
4638;SDS011;2332;38.646;-9.154;2022-12-29T05:59:06;16.20;;;3.57;;
4638;SDS011;2332;38.646;-9.154;2022-12-29T06:01:31;14.67;;;2.53;;
4638;SDS011;2332;38.646;-9.154;2022-12-29T06:03:58;14.90;;;2.60;;
4638;SDS011;2332;38.646;-9.154;2022-12-29T06:06:23;22.07;;;2.73;;
4638;SDS011;2332;38.646;-9.154;2022-12-29T06:08:49;12.17;;;2.40;;
4638;SDS011;2332;38.646;-9.154;2022-12-29T06:11:14;4.93;;;1.77;;
4638;SDS011;2332;38.646;-9.154;2022-12-29T06:13:39;13.13;;;2.50;;
4638;SDS011;2332;38.646;-9.154;2022-12-29T06:16:05;15.63;;;2.20;;
4638;SDS011;2332;38.646;-9.154;2022-12-29T06:18:30;15.53;;;2.47;;
4638;SDS011;2332;38.646;-9.154;2022-12-29T06:21:02;16.53;;;2.77;;
4638;SDS011;2332;38.646;-9.154;2022-12-29T06:23:28;14.00;;;2.23;;
4638;SDS011;2332;38.646;-9.154;2022-12-29T06:25:53;20.40;;;2.57;;
4638;SDS011;2332;38.646;-9.154;2022-12-29T06:28:19;10.53;;;2.93;;
4638;SDS011;2332;38.646;-9.154;2022-12-29T06:30:44;17.57;;;2.47;;
4638;SDS011;2332;38.646;-9.154;2022-12-29T06:33:13;13.73;;;2.33;;
4638;SDS011;2332;38.646;-9.154;2022-12-29T06:35:38;11.97;;;2.37;;
4638;SDS011;2332;38.646;-9.154;2022-12-29T06:38:04;13.27;;;2.20;;
4638;SDS011;2332;38.646;-9.154;2022-12-29T06:40:29;11.77;;;2.40;;
4638;SDS011;2332;38.646;-9.154;2022-12-29T06:42:54;13.13;;;2.30;;
4638;SDS011;2332;38.646;-9.154;2022-12-29T06:45:20;13.60;;;2.57;;
4638;SDS011;2332;38.646;-9.154;2022-12-29T06:47:45;17.23;;;2.90;;
4638;SDS011;2332;38.646;-9.154;2022-12-29T06:50:11;14.13;;;2.73;;
4638;SDS011;2332;38.646;-9.154;2022-12-29T06:52:36;17.50;;;2.83;;
4638;SDS011;2332;38.646;-9.154;2022-12-29T06:55:01;12.70;;;2.57;;
4638;SDS011;2332;38.646;-9.154;2022-12-29T06:57:27;18.47;;;3.87;;
4638;SDS011;2332;38.646;-9.154;2022-12-29T06:59:55;17.63;;;2.70;;
4638;SDS011;2332;38.646;-9.154;2022-12-29T07:02:21;20.30;;;3.17;;
4638;SDS011;2332;38.646;-9.154;2022-12-29T07:04:46;11.93;;;3.00;;
4638;SDS011;2332;38.646;-9.154;2022-12-29T07:07:12;25.20;;;3.50;;
4638;SDS011;2332;38.646;-9.154;2022-12-29T07:09:37;11.30;;;2.67;;
4638;SDS011;2332;38.646;-9.154;2022-12-29T07:12:05;12.03;;;2.73;;
4638;SDS011;2332;38.646;-9.154;2022-12-29T07:14:31;13.10;;;3.30;;
4638;SDS011;2332;38.646;-9.154;2022-12-29T07:16:56;13.93;;;4.30;;
4638;SDS011;2332;38.646;-9.154;2022-12-29T07:19:22;23.40;;;4.60;;
4638;SDS011;2332;38.646;-9.154;2022-12-29T07:21:47;14.83;;;3.10;;
4638;SDS011;2332;38.646;-9.154;2022-12-29T07:24:12;15.90;;;3.20;;
4638;SDS011;2332;38.646;-9.154;2022-12-29T07:26:38;20.10;;;3.60;;
4638;SDS011;2332;38.646;-9.154;2022-12-29T07:29:04;26.87;;;4.00;;
4638;SDS011;2332;38.646;-9.154;2022-12-29T07:31:29;17.53;;;3.53;;
4638;SDS011;2332;38.646;-9.154;2022-12-29T07:33:55;17.40;;;4.13;;
4638;SDS011;2332;38.646;-9.154;2022-12-29T07:36:20;14.83;;;3.40;;
4638;SDS011;2332;38.646;-9.154;2022-12-29T07:38:46;22.00;;;3.83;;
4638;SDS011;2332;38.646;-9.154;2022-12-29T07:41:11;32.93;;;5.73;;
4638;SDS011;2332;38.646;-9.154;2022-12-29T07:43:36;30.23;;;4.47;;
4638;SDS011;2332;38.646;-9.154;2022-12-29T07:46:02;22.60;;;4.70;;
4638;SDS011;2332;38.646;-9.154;2022-12-29T07:48:27;15.33;;;3.33;;
4638;SDS011;2332;38.646;-9.154;2022-12-29T07:50:53;18.37;;;4.23;;
4638;SDS011;2332;38.646;-9.154;2022-12-29T07:53:18;18.60;;;4.70;;
4638;SDS011;2332;38.646;-9.154;2022-12-29T07:55:43;18.23;;;3.87;;
4638;SDS011;2332;38.646;-9.154;2022-12-29T07:58:09;25.93;;;4.13;;
4638;SDS011;2332;38.646;-9.154;2022-12-29T08:00:34;17.00;;;4.07;;
4638;SDS011;2332;38.646;-9.154;2022-12-29T08:03:00;13.70;;;3.83;;
4638;SDS011;2332;38.646;-9.154;2022-12-29T08:05:25;21.07;;;5.00;;
4638;SDS011;2332;38.646;-9.154;2022-12-29T08:07:53;22.67;;;5.40;;
4638;SDS011;2332;38.646;-9.154;2022-12-29T08:10:19;19.63;;;5.37;;
4638;SDS011;2332;38.646;-9.154;2022-12-29T08:12:44;22.40;;;5.20;;
4638;SDS011;2332;38.646;-9.154;2022-12-29T08:15:10;17.67;;;4.40;;
4638;SDS011;2332;38.646;-9.154;2022-12-29T08:17:36;20.60;;;5.30;;
4638;SDS011;2332;38.646;-9.154;2022-12-29T08:20:01;23.90;;;4.97;;
4638;SDS011;2332;38.646;-9.154;2022-12-29T08:22:27;14.07;;;4.70;;
4638;SDS011;2332;38.646;-9.154;2022-12-29T08:24:52;18.83;;;4.33;;
4638;SDS011;2332;38.646;-9.154;2022-12-29T08:27:17;16.43;;;4.87;;
4638;SDS011;2332;38.646;-9.154;2022-12-29T08:29:43;17.27;;;4.07;;
4638;SDS011;2332;38.646;-9.154;2022-12-29T08:32:08;17.17;;;5.23;;
4638;SDS011;2332;38.646;-9.154;2022-12-29T08:34:34;20.13;;;4.33;;
4638;SDS011;2332;38.646;-9.154;2022-12-29T08:36:59;22.10;;;4.17;;
4638;SDS011;2332;38.646;-9.154;2022-12-29T08:39:30;22.30;;;4.57;;
4638;SDS011;2332;38.646;-9.154;2022-12-29T08:41:56;17.20;;;3.60;;
4638;SDS011;2332;38.646;-9.154;2022-12-29T08:44:21;28.87;;;4.17;;
4638;SDS011;2332;38.646;-9.154;2022-12-29T08:46:46;22.70;;;4.27;;
4638;SDS011;2332;38.646;-9.154;2022-12-29T08:49:12;23.57;;;4.10;;
4638;SDS011;2332;38.646;-9.154;2022-12-29T08:51:37;24.60;;;3.70;;
4638;SDS011;2332;38.646;-9.154;2022-12-29T08:54:03;12.73;;;3.17;;
4638;SDS011;2332;38.646;-9.154;2022-12-29T08:56:28;23.10;;;3.73;;
4638;SDS011;2332;38.646;-9.154;2022-12-29T08:58:53;18.87;;;3.50;;
4638;SDS011;2332;38.646;-9.154;2022-12-29T09:01:19;22.70;;;3.90;;
4638;SDS011;2332;38.646;-9.154;2022-12-29T09:03:45;24.00;;;3.90;;
4638;SDS011;2332;38.646;-9.154;2022-12-29T09:06:10;20.47;;;3.63;;
4638;SDS011;2332;38.646;-9.154;2022-12-29T09:08:36;29.30;;;3.77;;
4638;SDS011;2332;38.646;-9.154;2022-12-29T09:11:11;22.27;;;3.90;;
4638;SDS011;2332;38.646;-9.154;2022-12-29T09:13:37;19.23;;;3.37;;
4638;SDS011;2332;38.646;-9.154;2022-12-29T09:16:02;15.10;;;3.63;;
4638;SDS011;2332;38.646;-9.154;2022-12-29T09:18:28;20.30;;;3.50;;
4638;SDS011;2332;38.646;-9.154;2022-12-29T09:20:57;20.70;;;4.20;;
4638;SDS011;2332;38.646;-9.154;2022-12-29T09:23:23;25.60;;;5.03;;
4638;SDS011;2332;38.646;-9.154;2022-12-29T09:25:48;27.77;;;3.60;;
4638;SDS011;2332;38.646;-9.154;2022-12-29T09:28:13;24.37;;;4.30;;
4638;SDS011;2332;38.646;-9.154;2022-12-29T09:30:39;23.30;;;4.03;;
4638;SDS011;2332;38.646;-9.154;2022-12-29T09:33:04;17.53;;;4.10;;
4638;SDS011;2332;38.646;-9.154;2022-12-29T09:35:29;17.43;;;3.80;;
4638;SDS011;2332;38.646;-9.154;2022-12-29T09:37:55;29.50;;;4.50;;
4638;SDS011;2332;38.646;-9.154;2022-12-29T09:40:30;29.90;;;4.33;;
4638;SDS011;2332;38.646;-9.154;2022-12-29T09:45:43;15.70;;;3.70;;
4638;SDS011;2332;38.646;-9.154;2022-12-29T09:48:32;21.30;;;4.00;;
4638;SDS011;2332;38.646;-9.154;2022-12-29T09:50:57;26.13;;;3.90;;
4638;SDS011;2332;38.646;-9.154;2022-12-29T09:55:53;31.50;;;4.70;;
4638;SDS011;2332;38.646;-9.154;2022-12-29T09:58:21;26.53;;;5.30;;
4638;SDS011;2332;38.646;-9.154;2022-12-29T10:00:50;28.10;;;3.70;;
4638;SDS011;2332;38.646;-9.154;2022-12-29T10:03:18;21.17;;;3.43;;
4638;SDS011;2332;38.646;-9.154;2022-12-29T10:05:49;23.40;;;4.03;;
4638;SDS011;2332;38.646;-9.154;2022-12-29T10:13:27;21.37;;;3.73;;
4638;SDS011;2332;38.646;-9.154;2022-12-29T10:16:01;21.90;;;3.60;;
4638;SDS011;2332;38.646;-9.154;2022-12-29T10:21:07;21.30;;;3.83;;
4638;SDS011;2332;38.646;-9.154;2022-12-29T10:23:40;20.90;;;3.97;;
4638;SDS011;2332;38.646;-9.154;2022-12-29T10:26:12;20.13;;;3.93;;
4638;SDS011;2332;38.646;-9.154;2022-12-29T10:28:49;26.70;;;4.43;;
4638;SDS011;2332;38.646;-9.154;2022-12-29T10:31:16;22.53;;;3.93;;
4638;SDS011;2332;38.646;-9.154;2022-12-29T10:33:45;21.43;;;3.53;;
4638;SDS011;2332;38.646;-9.154;2022-12-29T10:36:19;22.43;;;3.97;;
4638;SDS011;2332;38.646;-9.154;2022-12-29T10:41:41;21.73;;;4.03;;
4638;SDS011;2332;38.646;-9.154;2022-12-29T10:44:09;28.60;;;4.30;;
4638;SDS011;2332;38.646;-9.154;2022-12-29T10:46:36;24.23;;;4.50;;
4638;SDS011;2332;38.646;-9.154;2022-12-29T10:49:02;23.03;;;3.97;;
4638;SDS011;2332;38.646;-9.154;2022-12-29T10:51:30;21.33;;;5.00;;
4638;SDS011;2332;38.646;-9.154;2022-12-29T10:54:15;19.57;;;4.10;;
4638;SDS011;2332;38.646;-9.154;2022-12-29T10:56:44;19.83;;;4.43;;
4638;SDS011;2332;38.646;-9.154;2022-12-29T10:59:16;26.63;;;4.33;;
4638;SDS011;2332;38.646;-9.154;2022-12-29T11:01:48;24.97;;;4.90;;
4638;SDS011;2332;38.646;-9.154;2022-12-29T11:04:21;18.37;;;3.97;;
4638;SDS011;2332;38.646;-9.154;2022-12-29T11:06:51;18.30;;;4.00;;
4638;SDS011;2332;38.646;-9.154;2022-12-29T11:09:20;23.83;;;3.57;;
4638;SDS011;2332;38.646;-9.154;2022-12-29T11:11:46;23.07;;;4.03;;
4638;SDS011;2332;38.646;-9.154;2022-12-29T11:14:19;27.33;;;3.87;;
4638;SDS011;2332;38.646;-9.154;2022-12-29T11:16:44;34.13;;;4.67;;
4638;SDS011;2332;38.646;-9.154;2022-12-29T11:19:22;30.80;;;5.33;;
4638;SDS011;2332;38.646;-9.154;2022-12-29T11:21:48;28.77;;;4.47;;
4638;SDS011;2332;38.646;-9.154;2022-12-29T11:24:21;22.23;;;6.87;;
4638;SDS011;2332;38.646;-9.154;2022-12-29T11:26:48;30.00;;;4.93;;
4638;SDS011;2332;38.646;-9.154;2022-12-29T11:29:20;31.73;;;5.60;;
4638;SDS011;2332;38.646;-9.154;2022-12-29T11:31:53;30.23;;;4.20;;
4638;SDS011;2332;38.646;-9.154;2022-12-29T11:36:45;28.03;;;4.80;;
4638;SDS011;2332;38.646;-9.154;2022-12-29T11:42:18;29.03;;;4.30;;
4638;SDS011;2332;38.646;-9.154;2022-12-29T11:44:44;25.97;;;4.70;;
4638;SDS011;2332;38.646;-9.154;2022-12-29T11:47:12;29.20;;;5.87;;
4638;SDS011;2332;38.646;-9.154;2022-12-29T11:49:38;27.43;;;4.50;;
4638;SDS011;2332;38.646;-9.154;2022-12-29T11:52:04;22.33;;;5.00;;
4638;SDS011;2332;38.646;-9.154;2022-12-29T11:54:31;25.47;;;4.70;;
4638;SDS011;2332;38.646;-9.154;2022-12-29T11:56:58;25.83;;;5.30;;
4638;SDS011;2332;38.646;-9.154;2022-12-29T12:01:52;19.83;;;4.63;;
4638;SDS011;2332;38.646;-9.154;2022-12-29T12:04:18;24.73;;;4.93;;
4638;SDS011;2332;38.646;-9.154;2022-12-29T12:06:56;28.47;;;5.50;;
4638;SDS011;2332;38.646;-9.154;2022-12-29T12:09:25;30.03;;;6.73;;
4638;SDS011;2332;38.646;-9.154;2022-12-29T12:11:52;31.20;;;5.77;;
4638;SDS011;2332;38.646;-9.154;2022-12-29T12:15:01;26.70;;;4.93;;
4638;SDS011;2332;38.646;-9.154;2022-12-29T12:17:16;33.63;;;5.73;;
4638;SDS011;2332;38.646;-9.154;2022-12-29T12:19:44;49.60;;;6.03;;
4638;SDS011;2332;38.646;-9.154;2022-12-29T12:27:33;36.77;;;5.60;;
4638;SDS011;2332;38.646;-9.154;2022-12-29T12:35:11;26.67;;;5.07;;
4638;SDS011;2332;38.646;-9.154;2022-12-29T12:51:20;26.73;;;5.40;;
4638;SDS011;2332;38.646;-9.154;2022-12-29T12:56:01;33.20;;;6.13;;
4638;SDS011;2332;38.646;-9.154;2022-12-29T12:59:06;25.10;;;4.90;;
4638;SDS011;2332;38.646;-9.154;2022-12-29T13:01:26;23.80;;;5.60;;
4638;SDS011;2332;38.646;-9.154;2022-12-29T13:04:03;24.50;;;4.60;;
4638;SDS011;2332;38.646;-9.154;2022-12-29T13:11:55;22.13;;;4.37;;
4638;SDS011;2332;38.646;-9.154;2022-12-29T13:17:02;23.03;;;5.13;;
4638;SDS011;2332;38.646;-9.154;2022-12-29T13:19:41;30.40;;;5.70;;
4638;SDS011;2332;38.646;-9.154;2022-12-29T13:29:58;31.10;;;5.20;;
4638;SDS011;2332;38.646;-9.154;2022-12-29T13:37:22;29.50;;;5.00;;
4638;SDS011;2332;38.646;-9.154;2022-12-29T13:39:51;25.47;;;4.90;;
4638;SDS011;2332;38.646;-9.154;2022-12-29T13:42:17;35.43;;;5.07;;
4638;SDS011;2332;38.646;-9.154;2022-12-29T13:44:46;22.07;;;5.53;;
4638;SDS011;2332;38.646;-9.154;2022-12-29T13:49:41;22.20;;;4.37;;
4638;SDS011;2332;38.646;-9.154;2022-12-29T13:55:01;20.80;;;4.10;;
4638;SDS011;2332;38.646;-9.154;2022-12-29T13:57:35;26.03;;;4.80;;
4638;SDS011;2332;38.646;-9.154;2022-12-29T14:00:04;28.43;;;4.80;;
4638;SDS011;2332;38.646;-9.154;2022-12-29T14:07:47;21.30;;;4.60;;
4638;SDS011;2332;38.646;-9.154;2022-12-29T14:13:16;30.20;;;5.00;;
4638;SDS011;2332;38.646;-9.154;2022-12-29T14:15:40;26.83;;;5.50;;
4638;SDS011;2332;38.646;-9.154;2022-12-29T14:20:36;23.03;;;4.97;;
4638;SDS011;2332;38.646;-9.154;2022-12-29T14:28:24;29.93;;;5.43;;
4638;SDS011;2332;38.646;-9.154;2022-12-29T14:30:51;30.00;;;5.20;;
4638;SDS011;2332;38.646;-9.154;2022-12-29T14:33:17;35.97;;;5.60;;
4638;SDS011;2332;38.646;-9.154;2022-12-29T14:35:46;33.47;;;5.00;;
4638;SDS011;2332;38.646;-9.154;2022-12-29T14:38:16;29.40;;;4.53;;
4638;SDS011;2332;38.646;-9.154;2022-12-29T14:40:42;23.90;;;4.70;;
4638;SDS011;2332;38.646;-9.154;2022-12-29T14:43:16;30.97;;;5.57;;
4638;SDS011;2332;38.646;-9.154;2022-12-29T14:45:43;20.07;;;5.83;;
4638;SDS011;2332;38.646;-9.154;2022-12-29T14:48:30;24.00;;;5.50;;
4638;SDS011;2332;38.646;-9.154;2022-12-29T14:50:57;33.80;;;5.30;;
4638;SDS011;2332;38.646;-9.154;2022-12-29T14:56:18;39.17;;;6.73;;
4638;SDS011;2332;38.646;-9.154;2022-12-29T14:58:50;33.50;;;5.60;;
4638;SDS011;2332;38.646;-9.154;2022-12-29T15:03:45;22.13;;;5.07;;
4638;SDS011;2332;38.646;-9.154;2022-12-29T15:06:11;24.53;;;5.33;;
4638;SDS011;2332;38.646;-9.154;2022-12-29T15:08:51;34.73;;;5.27;;
4638;SDS011;2332;38.646;-9.154;2022-12-29T15:11:22;29.53;;;5.60;;
4638;SDS011;2332;38.646;-9.154;2022-12-29T15:13:48;27.43;;;5.30;;
4638;SDS011;2332;38.646;-9.154;2022-12-29T15:18:52;33.67;;;7.03;;
4638;SDS011;2332;38.646;-9.154;2022-12-29T15:21:17;30.17;;;6.53;;
4638;SDS011;2332;38.646;-9.154;2022-12-29T15:23:45;29.23;;;6.80;;
4638;SDS011;2332;38.646;-9.154;2022-12-29T15:26:11;31.93;;;6.30;;
4638;SDS011;2332;38.646;-9.154;2022-12-29T15:28:38;20.13;;;4.70;;
4638;SDS011;2332;38.646;-9.154;2022-12-29T15:31:05;21.27;;;5.20;;
4638;SDS011;2332;38.646;-9.154;2022-12-29T15:33:30;33.93;;;5.23;;
4638;SDS011;2332;38.646;-9.154;2022-12-29T15:35:56;23.17;;;6.03;;
4638;SDS011;2332;38.646;-9.154;2022-12-29T15:38:23;37.53;;;5.80;;
4638;SDS011;2332;38.646;-9.154;2022-12-29T15:40:56;17.53;;;4.80;;
4638;SDS011;2332;38.646;-9.154;2022-12-29T15:45:51;26.03;;;4.67;;
4638;SDS011;2332;38.646;-9.154;2022-12-29T15:48:21;30.33;;;5.20;;
4638;SDS011;2332;38.646;-9.154;2022-12-29T15:50:48;21.20;;;5.33;;
4638;SDS011;2332;38.646;-9.154;2022-12-29T15:55:45;26.70;;;5.53;;
4638;SDS011;2332;38.646;-9.154;2022-12-29T15:58:22;29.03;;;4.80;;
4638;SDS011;2332;38.646;-9.154;2022-12-29T16:00:52;35.70;;;5.03;;
4638;SDS011;2332;38.646;-9.154;2022-12-29T16:03:27;27.00;;;4.93;;
4638;SDS011;2332;38.646;-9.154;2022-12-29T16:05:57;31.43;;;6.23;;
4638;SDS011;2332;38.646;-9.154;2022-12-29T16:08:32;23.00;;;4.80;;
4638;SDS011;2332;38.646;-9.154;2022-12-29T16:10:58;22.83;;;4.40;;
4638;SDS011;2332;38.646;-9.154;2022-12-29T16:13:34;26.67;;;5.20;;
4638;SDS011;2332;38.646;-9.154;2022-12-29T16:16:02;24.13;;;5.00;;
4638;SDS011;2332;38.646;-9.154;2022-12-29T16:18:34;23.77;;;4.90;;
4638;SDS011;2332;38.646;-9.154;2022-12-29T16:21:01;29.53;;;6.00;;
4638;SDS011;2332;38.646;-9.154;2022-12-29T16:23:28;23.80;;;5.03;;
4638;SDS011;2332;38.646;-9.154;2022-12-29T16:25:54;31.73;;;5.07;;
4638;SDS011;2332;38.646;-9.154;2022-12-29T16:28:21;27.70;;;4.90;;
4638;SDS011;2332;38.646;-9.154;2022-12-29T16:30:47;28.70;;;5.53;;
4638;SDS011;2332;38.646;-9.154;2022-12-29T16:33:38;22.33;;;4.43;;
4638;SDS011;2332;38.646;-9.154;2022-12-29T16:36:27;29.07;;;4.97;;
4638;SDS011;2332;38.646;-9.154;2022-12-29T16:38:49;26.00;;;4.57;;
4638;SDS011;2332;38.646;-9.154;2022-12-29T16:41:31;31.33;;;5.07;;
4638;SDS011;2332;38.646;-9.154;2022-12-29T16:47:00;27.50;;;5.50;;
4638;SDS011;2332;38.646;-9.154;2022-12-29T16:49:26;26.47;;;5.10;;
4638;SDS011;2332;38.646;-9.154;2022-12-29T16:51:53;27.27;;;4.93;;
4638;SDS011;2332;38.646;-9.154;2022-12-29T16:54:23;17.27;;;4.53;;
4638;SDS011;2332;38.646;-9.154;2022-12-29T16:56:49;28.03;;;5.60;;
4638;SDS011;2332;38.646;-9.154;2022-12-29T17:01:42;23.33;;;5.00;;
4638;SDS011;2332;38.646;-9.154;2022-12-29T17:04:08;24.70;;;5.30;;
4638;SDS011;2332;38.646;-9.154;2022-12-29T17:06:35;24.07;;;5.83;;
4638;SDS011;2332;38.646;-9.154;2022-12-29T17:09:00;18.77;;;5.00;;
4638;SDS011;2332;38.646;-9.154;2022-12-29T17:11:27;25.53;;;4.23;;
4638;SDS011;2332;38.646;-9.154;2022-12-29T17:14:17;28.77;;;5.63;;
4638;SDS011;2332;38.646;-9.154;2022-12-29T17:16:43;20.60;;;4.83;;
4638;SDS011;2332;38.646;-9.154;2022-12-29T17:19:11;24.13;;;6.00;;
4638;SDS011;2332;38.646;-9.154;2022-12-29T17:21:37;21.20;;;4.80;;
4638;SDS011;2332;38.646;-9.154;2022-12-29T17:24:04;37.30;;;5.50;;